Terminal Aerodrome Forecast
Issued by NWS

Home | Current Version | Previous Version | Text Only | Print | Product List | Glossary Off
Versions: 1 2 3 4 5 6 7 8 9 10 11 12 13 14 15 16

495
FTUS43 KICT 210520
TAFSLN
TAF
KSLN 210520Z 2106/2206 18011KT P6SM SKC WS015/22043KT
     FM211300 19012KT P6SM SKC
     FM211700 20017G25KT P6SM FEW080
     FM220000 16011KT P6SM SKC=

USA.gov is the U.S. government's official web portal to all federal, state and local government web resources and services.